aviador You're here:

LFRO Decoded Metar

LANNION in FRANCE
Report Time2018-06-17 21:30:00
UTC Time2018-06-17 21:57:02
Flight Rules lifr LIFR
Wind250° at 10 kt
W.Decomp.*RWY 29: 7.9 kt HW 6.2 kt LCW
W.Rank250° ranks 10
Current wind is below 250° avg. (10.6)
Visibility6000 m
Phenomena:N/A
Clouds:Overcast 003 Hf
Ceiling300 ft
Temp15°C (ISA +1)
Dew Point15°C (100% RH)
AAT13.0°C
QNH1021 hPa
Density Alt318 ft
Elevation292 ft
Report Wrong Elevation
Raw Report
METAR LFRO 172130Z AUTO 25010KT 6000 OVC003 15/15 Q1021=

Extra information for LFRO:More info

Metar Taf Metar & Taf Last 4 Metars F.Rules Stats Wind Profile Meteogram Temp Stats Airport Information Weather charts Add Link Nearby VenuesMetar ALERT Operation Metar Decoded Social comments